createdAt,value
2018-11-20T00:02:12.316Z,6.25
2018-11-20T00:04:49.512Z,6.28
2018-11-20T00:07:21.636Z,6.28
2018-11-20T00:09:55.090Z,6.36
2018-11-20T00:12:28.056Z,6.34
2018-11-20T00:15:04.463Z,6.47
2018-11-20T00:17:37.886Z,6.45
2018-11-20T00:20:14.364Z,6.02
2018-11-20T00:22:46.515Z,6.06
2018-11-20T00:25:21.447Z,5.87
2018-11-20T00:27:58.516Z,5.95
2018-11-20T00:30:30.695Z,6.11
2018-11-20T00:33:08.955Z,6.10
2018-11-20T00:35:42.347Z,6.08
2018-11-20T00:40:24.160Z,6.22
2018-11-20T00:42:59.249Z,5.71
2018-11-20T00:45:52.768Z,5.66
2018-11-20T00:50:30.588Z,5.90
2018-11-20T00:53:03.860Z,5.84
2018-11-20T00:55:48.857Z,5.89
2018-11-20T00:58:21.096Z,5.89
2018-11-20T01:01:02.267Z,5.97
2018-11-20T01:03:37.350Z,5.92
2018-11-20T01:06:10.600Z,5.90
2018-11-20T01:08:44.508Z,6.12
2018-11-20T01:11:17.783Z,6.11
2018-11-20T01:13:51.211Z,6.33
2018-11-20T01:18:30.492Z,6.14
2018-11-20T01:21:03.931Z,5.63
2018-11-20T01:23:37.071Z,5.70
2018-11-20T01:26:10.443Z,5.73
2018-11-20T01:30:47.423Z,5.84
2018-11-20T01:34:23.582Z,5.81
2018-11-20T01:36:57.532Z,5.80
2018-11-20T01:39:33.640Z,5.88
2018-11-20T01:42:06.799Z,5.87
2018-11-20T01:45:12.454Z,5.72
2018-11-20T01:47:45.867Z,5.63
2018-11-20T01:50:24.106Z,5.68
2018-11-20T01:52:57.399Z,5.81
2018-11-20T01:55:29.577Z,5.73
2018-11-20T01:58:07.665Z,5.68
2018-11-20T02:00:57.019Z,5.71
2018-11-20T02:03:29.163Z,5.57
2018-11-20T02:06:04.902Z,5.55
2018-11-20T02:08:38.129Z,5.67
2018-11-20T02:11:17.344Z,5.69
2018-11-20T02:14:01.559Z,5.51
2018-11-20T02:16:47.453Z,5.64
2018-11-20T02:19:21.509Z,5.51
2018-11-20T02:22:25.747Z,5.40
2018-11-20T02:25:30.381Z,5.26
2018-11-20T02:28:05.359Z,5.17
2018-11-20T02:30:41.439Z,5.31
2018-11-20T02:33:17.544Z,5.42
2018-11-20T02:35:50.891Z,5.74
2018-11-20T02:39:25.127Z,5.66
2018-11-20T02:42:09.383Z,5.61
2018-11-20T02:45:40.659Z,5.58
2018-11-20T02:48:45.116Z,5.32
2018-11-20T02:51:21.375Z,5.38
2018-11-20T02:54:01.515Z,5.46
2018-11-20T02:56:34.967Z,5.74
2018-11-20T02:59:10.003Z,5.81
2018-11-20T03:01:44.079Z,5.63
2018-11-20T03:04:17.963Z,5.34
2018-11-20T03:07:00.160Z,5.46
2018-11-20T03:09:53.545Z,5.44
2018-11-20T03:14:31.375Z,5.41
2018-11-20T03:17:04.487Z,4.89
2018-11-20T03:19:39.702Z,5.03
2018-11-20T03:22:14.791Z,4.90
2018-11-20T03:24:50.856Z,5.00
2018-11-20T03:27:28.107Z,4.97
2018-11-20T03:31:12.052Z,5.03
2018-11-20T03:34:48.092Z,5.07
2018-11-20T03:37:22.466Z,4.88
2018-11-20T03:39:55.599Z,4.97
2018-11-20T03:42:28.935Z,5.09
2018-11-20T03:45:02.608Z,5.18
2018-11-20T03:47:35.821Z,5.08
2018-11-20T03:50:09.223Z,5.10
2018-11-20T03:53:41.262Z,5.14
2018-11-20T03:56:14.267Z,5.08
2018-11-20T03:58:47.635Z,5.06
2018-11-20T04:01:20.843Z,5.28
2018-11-20T04:03:52.990Z,5.26
2018-11-20T04:06:25.175Z,5.25
2018-11-20T04:08:57.391Z,5.20
2018-11-20T04:11:44.865Z,5.23
2018-11-20T04:14:18.235Z,5.41
2018-11-20T04:16:54.463Z,5.46
2018-11-20T04:19:26.608Z,5.48
2018-11-20T04:22:00.019Z,5.26
2018-11-20T04:24:37.103Z,5.46
2018-11-20T04:27:10.524Z,5.10
2018-11-20T04:29:46.671Z,5.10
2018-11-20T04:32:45.184Z,5.32
2018-11-20T04:35:24.854Z,5.11
2018-11-20T04:38:03.067Z,5.24
2018-11-20T04:40:35.222Z,5.26
2018-11-20T04:43:28.527Z,5.44
2018-11-20T04:46:02.082Z,5.31
2018-11-20T04:48:37.128Z,5.19
2018-11-20T04:52:17.516Z,5.32
2018-11-20T04:54:52.648Z,5.39
2018-11-20T04:57:25.936Z,5.25
2018-11-20T04:59:58.054Z,5.27
2018-11-20T05:02:32.096Z,5.41
2018-11-20T05:06:06.319Z,5.36
2018-11-20T05:08:38.684Z,5.23
2018-11-20T05:11:25.949Z,5.22
2018-11-20T05:13:59.203Z,5.37
2018-11-20T05:16:35.195Z,5.51
2018-11-20T05:19:11.419Z,5.47
2018-11-20T05:21:48.530Z,5.37
2018-11-20T05:26:26.236Z,5.28
2018-11-20T05:29:18.680Z,5.30
2018-11-20T05:31:51.892Z,5.30
2018-11-20T05:34:25.092Z,5.14
2018-11-20T05:38:02.499Z,5.10
2018-11-20T05:41:07.972Z,5.37
2018-11-20T05:43:56.166Z,5.42
2018-11-20T05:47:33.976Z,5.31
2018-11-20T05:50:07.003Z,5.49
2018-11-20T05:52:40.137Z,5.39
2018-11-20T05:55:16.227Z,5.26
2018-11-20T05:57:50.438Z,5.41
2018-11-20T06:02:28.208Z,5.57
2018-11-20T06:05:00.362Z,5.47
2018-11-20T06:07:32.501Z,5.47
2018-11-20T06:10:05.827Z,5.60
2018-11-20T06:12:41.066Z,5.56
2018-11-20T06:15:16.089Z,5.41
2018-11-20T06:17:49.378Z,5.59
2018-11-20T06:20:23.599Z,5.75
2018-11-20T06:22:56.699Z,5.56
2018-11-20T06:25:31.940Z,5.55
2018-11-20T06:28:07.987Z,5.68
2018-11-20T06:30:44.060Z,5.73
2018-11-20T06:33:19.256Z,5.57
2018-11-20T06:35:53.468Z,5.41
2018-11-20T06:38:28.099Z,5.42
2018-11-20T06:41:01.617Z,5.56
2018-11-20T06:43:52.653Z,5.60
2018-11-20T06:46:24.799Z,5.61
2018-11-20T06:48:57.990Z,5.60
2018-11-20T06:51:35.187Z,5.67
2018-11-20T06:54:16.312Z,5.70
2018-11-20T06:57:20.774Z,5.65
2018-11-20T06:59:56.989Z,5.48
2018-11-20T07:02:30.259Z,5.65
2018-11-20T07:05:10.475Z,5.69
2018-11-20T07:07:47.735Z,5.57
2018-11-20T07:10:26.631Z,5.56
2018-11-20T07:13:03.343Z,5.63
2018-11-20T07:15:38.081Z,5.86
2018-11-20T07:19:15.423Z,5.70
2018-11-20T07:21:52.608Z,5.68
2018-11-20T07:24:25.847Z,5.73
2018-11-20T07:26:59.157Z,5.85
2018-11-20T07:29:37.547Z,5.94
2018-11-20T07:32:10.868Z,6.01
2018-11-20T07:36:48.703Z,5.74
2018-11-20T07:39:21.516Z,5.64
2018-11-20T07:41:56.527Z,5.81
2018-11-20T07:46:38.471Z,5.74
2018-11-20T07:49:14.579Z,5.78
2018-11-20T07:53:50.033Z,5.65
2018-11-20T07:56:29.504Z,5.63
2018-11-20T07:59:02.739Z,5.81
2018-11-20T08:01:35.936Z,6.01
2018-11-20T08:04:18.088Z,5.97
2018-11-20T08:07:52.908Z,5.95
2018-11-20T08:12:28.995Z,6.09
2018-11-20T08:15:09.247Z,5.87
2018-11-20T08:17:47.380Z,6.00
2018-11-20T08:20:55.511Z,6.32
2018-11-20T08:23:38.605Z,6.08
2018-11-20T08:26:31.731Z,6.20
2018-11-20T08:29:13.250Z,6.41
2018-11-20T08:31:52.330Z,6.45
2018-11-20T08:34:38.205Z,6.25
2018-11-20T08:37:23.849Z,6.18
2018-11-20T08:40:09.897Z,6.34
2018-11-20T08:43:04.355Z,6.46
2018-11-20T08:45:52.669Z,6.49
2018-11-20T08:48:52.052Z,6.37
2018-11-20T08:51:38.161Z,6.33
2018-11-20T08:54:19.888Z,6.20
2018-11-20T08:57:14.811Z,6.31
2018-11-20T08:59:52.464Z,6.47
2018-11-20T09:02:48.443Z,6.45
2018-11-20T09:05:44.238Z,6.45
2018-11-20T09:08:40.472Z,6.58
2018-11-20T09:11:25.734Z,6.65
2018-11-20T09:14:28.065Z,6.68
2018-11-20T09:17:18.178Z,6.63
2018-11-20T09:20:14.445Z,6.64
2018-11-20T09:23:07.401Z,6.82
2018-11-20T09:25:53.282Z,6.92
2018-11-20T09:28:36.288Z,6.91
2018-11-20T09:31:21.874Z,6.97
2018-11-20T09:34:14.833Z,7.02
2018-11-20T09:37:10.749Z,6.86
2018-11-20T09:39:59.678Z,6.80
2018-11-20T09:42:37.278Z,6.74
2018-11-20T09:46:04.052Z,6.87
2018-11-20T09:48:51.435Z,6.71
2018-11-20T09:51:37.275Z,6.66
2018-11-20T09:54:37.255Z,6.79
2018-11-20T09:57:22.818Z,6.89
2018-11-20T10:00:19.185Z,6.98
2018-11-20T10:03:18.143Z,6.84
2018-11-20T10:05:55.758Z,6.77
2018-11-20T10:08:42.530Z,6.88
2018-11-20T10:11:28.026Z,6.79
2018-11-20T10:14:10.994Z,6.85
2018-11-20T10:16:58.340Z,6.95
2018-11-20T10:20:00.614Z,6.86
2018-11-20T10:22:47.263Z,6.96
2018-11-20T10:25:37.287Z,6.99
2018-11-20T10:28:23.050Z,7.38
2018-11-20T10:31:10.544Z,7.05
2018-11-20T10:33:56.442Z,7.07
2018-11-20T10:36:55.875Z,7.46
2018-11-20T10:39:47.508Z,7.43
2018-11-20T10:42:42.090Z,7.43
2018-11-20T10:45:28.272Z,7.35
2018-11-20T10:48:21.303Z,7.18
2018-11-20T10:51:07.597Z,7.11
2018-11-20T10:53:55.570Z,7.33
2018-11-20T10:56:41.359Z,7.22
2018-11-20T10:59:27.817Z,7.32
2018-11-20T11:02:26.740Z,7.53
2018-11-20T11:05:12.809Z,7.63
2018-11-20T11:07:59.690Z,7.43
2018-11-20T11:10:52.507Z,7.72
2018-11-20T11:13:51.890Z,7.59
2018-11-20T11:16:41.780Z,7.60
2018-11-20T11:19:27.414Z,7.72
2018-11-20T11:22:13.024Z,7.83
2018-11-20T11:24:59.046Z,7.75
2018-11-20T11:27:42.467Z,7.86
2018-11-20T11:30:24.471Z,8.07
2018-11-20T11:33:10.360Z,7.89
2018-11-20T11:36:06.373Z,7.98
2018-11-20T11:38:56.070Z,8.17
2018-11-20T11:41:40.430Z,8.11
2018-11-20T11:44:26.285Z,8.06
2018-11-20T11:47:16.517Z,7.96
2018-11-20T11:50:02.855Z,8.05
2018-11-20T11:52:59.037Z,8.24
2018-11-20T11:55:52.291Z,8.02
2018-11-20T11:58:30.382Z,7.88
2018-11-20T12:01:17.546Z,8.10
2018-11-20T12:06:53.717Z,8.08
2018-11-20T12:09:40.829Z,8.18
2018-11-20T12:12:20.866Z,8.20
2018-11-20T12:15:07.269Z,8.26
2018-11-20T12:17:45.266Z,8.03
2018-11-20T12:20:50.573Z,8.16
2018-11-20T12:23:36.752Z,8.08
2018-11-20T12:26:14.960Z,8.04
2018-11-20T12:29:14.834Z,8.00
2018-11-20T12:32:10.250Z,7.99
2018-11-20T12:34:56.735Z,7.99
2018-11-20T12:37:46.259Z,7.89
2018-11-20T12:40:32.874Z,7.82
2018-11-20T12:43:24.624Z,7.90
2018-11-20T12:46:13.138Z,7.81
2018-11-20T12:49:03.433Z,7.99
2018-11-20T12:51:49.267Z,7.92
2018-11-20T12:54:54.490Z,8.11
2018-11-20T12:57:42.292Z,8.05
2018-11-20T13:00:28.064Z,8.07
2018-11-20T13:03:13.600Z,7.83
2018-11-20T13:05:59.456Z,7.66
2018-11-20T13:08:46.099Z,7.60
2018-11-20T13:11:45.025Z,7.63
2018-11-20T13:14:33.028Z,7.58
2018-11-20T13:17:26.079Z,7.38
2018-11-20T13:20:08.246Z,7.56
2018-11-20T13:22:54.002Z,7.61
2018-11-20T13:25:53.306Z,7.68
2018-11-20T13:28:46.543Z,7.62
2018-11-20T13:31:33.130Z,7.96
2018-11-20T13:34:20.906Z,7.93
2018-11-20T13:37:04.652Z,7.95
2018-11-20T13:39:52.146Z,8.00
2018-11-20T13:42:57.303Z,8.08
2018-11-20T13:45:51.980Z,7.84
2018-11-20T13:48:47.783Z,7.92
2018-11-20T13:51:34.880Z,7.97
2018-11-20T13:54:40.199Z,8.00
2018-11-20T13:57:45.840Z,7.73
2018-11-20T14:00:42.244Z,7.44
2018-11-20T14:03:25.781Z,7.58
2018-11-20T14:06:31.673Z,7.63
2018-11-20T14:09:17.676Z,7.59
2018-11-20T14:12:08.529Z,7.66
2018-11-20T14:14:53.911Z,7.53
2018-11-20T14:17:50.387Z,7.39
2018-11-20T14:20:56.241Z,7.44
2018-11-20T14:23:41.884Z,7.37
2018-11-20T14:26:27.894Z,7.33
2018-11-20T14:29:13.669Z,7.45
2018-11-20T14:32:03.506Z,7.27
2018-11-20T14:34:50.043Z,7.55
2018-11-20T14:37:36.163Z,7.50
2018-11-20T14:40:32.491Z,7.33
2018-11-20T14:43:11.584Z,7.16
2018-11-20T14:46:01.489Z,7.20
2018-11-20T14:48:47.020Z,7.36
2018-11-20T14:51:36.262Z,7.36
2018-11-20T14:54:22.218Z,7.17
2018-11-20T14:57:08.080Z,7.20
2018-11-20T14:59:54.469Z,7.25
2018-11-20T15:02:40.177Z,7.26
2018-11-20T15:05:26.027Z,7.12
2018-11-20T15:08:12.153Z,7.01
2018-11-20T15:10:51.820Z,6.97
2018-11-20T15:13:57.520Z,7.12
2018-11-20T15:16:54.304Z,7.12
2018-11-20T15:19:59.365Z,6.98
2018-11-20T15:22:44.963Z,6.96
2018-11-20T15:25:30.530Z,6.75
2018-11-20T15:28:05.118Z,6.74
2018-11-20T15:30:52.630Z,6.79
2018-11-20T15:33:45.536Z,6.75
2018-11-20T15:36:21.035Z,6.67
2018-11-20T15:39:04.697Z,6.81
2018-11-20T15:41:54.456Z,6.71
2018-11-20T15:44:41.558Z,6.72
2018-11-20T15:47:35.117Z,6.62
2018-11-20T15:50:40.681Z,6.61
2018-11-20T15:53:27.305Z,6.53
2018-11-20T15:56:17.670Z,6.61
2018-11-20T15:59:04.192Z,6.62
2018-11-20T16:01:50.191Z,6.41
2018-11-20T16:04:50.514Z,6.42
2018-11-20T16:07:46.435Z,6.34
2018-11-20T16:10:21.265Z,6.43
2018-11-20T16:13:01.962Z,6.45
2018-11-20T16:15:57.938Z,6.47
2018-11-20T16:18:57.393Z,6.57
2018-11-20T16:21:56.775Z,6.52
2018-11-20T16:24:39.909Z,6.36
2018-11-20T16:27:27.632Z,6.52
2018-11-20T16:30:13.493Z,6.50
2018-11-20T16:33:00.569Z,6.56
2018-11-20T16:35:46.104Z,6.54
2018-11-20T16:38:32.925Z,6.52
2018-11-20T16:41:18.995Z,6.48
2018-11-20T16:44:18.146Z,6.54
2018-11-20T16:47:08.102Z,6.58
2018-11-20T16:49:53.959Z,6.60
2018-11-20T16:52:45.002Z,6.59
2018-11-20T16:55:32.131Z,6.58
2018-11-20T16:58:18.290Z,6.59
2018-11-20T17:01:04.808Z,6.47
2018-11-20T17:03:54.478Z,6.49
2018-11-20T17:06:33.011Z,6.39
2018-11-20T17:09:31.962Z,6.44
2018-11-20T17:12:19.057Z,6.34
2018-11-20T17:15:25.106Z,6.32
2018-11-20T17:18:05.656Z,6.30
2018-11-20T17:21:07.818Z,6.37
2018-11-20T17:23:57.667Z,6.50
2018-11-20T17:26:53.804Z,6.41
2018-11-20T17:29:50.732Z,6.56
2018-11-20T17:32:30.498Z,6.60
2018-11-20T17:35:16.697Z,6.74
2018-11-20T17:37:55.736Z,6.65
2018-11-20T17:41:01.328Z,6.66
2018-11-20T17:43:47.271Z,6.63
2018-11-20T17:46:39.688Z,6.72
2018-11-20T17:49:25.571Z,6.81
2018-11-20T17:52:18.349Z,6.83
2018-11-20T17:55:08.520Z,6.71
2018-11-20T17:58:10.507Z,6.66
2018-11-20T18:01:02.533Z,6.61
2018-11-20T18:03:48.293Z,6.67
2018-11-20T18:06:41.562Z,6.76
2018-11-20T18:09:19.361Z,6.83
2018-11-20T18:12:05.226Z,6.65
2018-11-20T18:14:50.936Z,6.59
2018-11-20T18:17:27.896Z,6.65
2018-11-20T18:20:13.463Z,6.69
2018-11-20T18:22:53.133Z,6.72
2018-11-20T18:25:39.384Z,6.76
2018-11-20T18:28:25.484Z,6.70
2018-11-20T18:31:27.450Z,6.54
2018-11-20T18:34:13.559Z,6.49
2018-11-20T18:37:07.685Z,6.29
2018-11-20T18:39:59.927Z,6.49
2018-11-20T18:43:05.068Z,6.51
2018-11-20T18:45:51.555Z,6.46
2018-11-20T18:48:39.672Z,6.46
2018-11-20T18:51:19.650Z,6.34
2018-11-20T18:54:05.423Z,6.43
2018-11-20T18:57:04.886Z,6.41
2018-11-20T18:59:58.214Z,6.41
2018-11-20T19:02:57.741Z,6.29
2018-11-20T19:05:43.606Z,6.34
2018-11-20T19:08:46.539Z,6.41
2018-11-20T19:11:32.091Z,6.54
2018-11-20T19:14:17.909Z,6.52
2018-11-20T19:16:58.999Z,6.46
2018-11-20T19:19:45.283Z,6.42
2018-11-20T19:22:32.378Z,6.28
2018-11-20T19:25:18.240Z,6.30
2018-11-20T19:28:17.295Z,6.31
2018-11-20T19:31:03.797Z,6.35
2018-11-20T19:33:53.486Z,6.46
2018-11-20T19:36:43.823Z,6.57
2018-11-20T19:39:33.033Z,6.62
2018-11-20T19:42:18.602Z,6.62
2018-11-20T19:45:08.219Z,6.53
2018-11-20T19:48:01.633Z,6.61
2018-11-20T19:50:49.099Z,6.63
2018-11-20T19:53:52.225Z,6.60
2018-11-20T19:56:39.683Z,6.49
2018-11-20T19:59:25.494Z,6.49
2018-11-20T20:02:33.333Z,6.48
2018-11-20T20:05:20.821Z,6.41
2018-11-20T20:08:11.751Z,6.40
2018-11-20T20:10:59.472Z,6.44
2018-11-20T20:13:49.854Z,6.31
2018-11-20T20:16:36.293Z,6.32
2018-11-20T20:19:26.572Z,6.24
2018-11-20T20:22:11.352Z,6.19
2018-11-20T20:25:07.333Z,6.09
2018-11-20T20:28:03.556Z,6.19
2018-11-20T20:30:49.652Z,6.35
2018-11-20T20:33:35.866Z,6.21
2018-11-20T20:36:21.673Z,6.18
2018-11-20T20:39:24.172Z,6.28
2018-11-20T20:42:20.048Z,6.17
2018-11-20T20:45:06.507Z,6.24
2018-11-20T20:47:56.755Z,6.18
2018-11-20T20:50:42.797Z,6.18
2018-11-20T20:53:27.168Z,6.29
2018-11-20T20:56:29.994Z,6.31
2018-11-20T20:59:17.888Z,6.30
2018-11-20T21:02:05.577Z,6.29
2018-11-20T21:04:45.338Z,6.26
2018-11-20T21:07:43.886Z,6.35
2018-11-20T21:10:42.473Z,6.36
2018-11-20T21:13:28.656Z,6.36
2018-11-20T21:16:14.800Z,6.24
2018-11-20T21:18:59.721Z,6.24
2018-11-20T21:21:45.813Z,6.37
2018-11-20T21:24:36.025Z,6.33
2018-11-20T21:27:23.150Z,6.42
2018-11-20T21:30:10.118Z,6.48
2018-11-20T21:33:06.614Z,6.41
2018-11-20T21:36:02.572Z,6.43
2018-11-20T21:38:52.438Z,6.50
2018-11-20T21:41:44.436Z,6.52
2018-11-20T21:44:31.556Z,6.55
2018-11-20T21:47:17.545Z,6.51
2018-11-20T21:50:07.269Z,6.59
2018-11-20T21:53:12.557Z,6.66
2018-11-20T21:55:52.653Z,6.49
2018-11-20T21:58:52.005Z,6.43
2018-11-20T22:01:38.004Z,6.34
2018-11-20T22:04:24.108Z,6.55
2018-11-20T22:07:09.829Z,6.48
2018-11-20T22:09:55.418Z,6.50
2018-11-20T22:12:51.750Z,6.35
2018-11-20T22:15:30.150Z,6.43
2018-11-20T22:18:16.292Z,6.52
2018-11-20T22:21:02.357Z,6.45
2018-11-20T22:23:48.136Z,6.49
2018-11-20T22:26:35.581Z,6.40
2018-11-20T22:29:21.770Z,6.43
2018-11-20T22:32:09.236Z,6.56
2018-11-20T22:34:53.115Z,6.69
2018-11-20T22:37:36.244Z,6.59
2018-11-20T22:40:27.586Z,6.46
2018-11-20T22:43:13.252Z,6.61
2018-11-20T22:45:59.167Z,6.56
2018-11-20T22:48:44.654Z,6.56
2018-11-20T22:51:31.072Z,6.58
2018-11-20T22:54:19.260Z,6.52
2018-11-20T22:57:12.994Z,6.56
2018-11-20T22:59:47.177Z,6.62
2018-11-20T23:02:35.202Z,6.58
2018-11-20T23:05:21.473Z,6.51
2018-11-20T23:07:54.054Z,6.48
2018-11-20T23:10:23.043Z,6.56
2018-11-20T23:12:51.950Z,6.56
2018-11-20T23:15:20.245Z,6.47
2018-11-20T23:17:48.199Z,6.34
2018-11-20T23:20:16.410Z,6.44
2018-11-20T23:22:44.425Z,6.27
2018-11-20T23:25:13.509Z,6.24
2018-11-20T23:27:41.594Z,6.30
2018-11-20T23:30:11.182Z,6.21
2018-11-20T23:32:39.763Z,6.19
2018-11-20T23:35:09.099Z,6.21
2018-11-20T23:37:37.587Z,6.12
2018-11-20T23:40:06.192Z,6.01
2018-11-20T23:42:34.663Z,6.01
2018-11-20T23:45:02.869Z,6.05
2018-11-20T23:47:30.872Z,6.07
2018-11-20T23:49:59.148Z,6.12
2018-11-20T23:52:27.449Z,6.08
2018-11-20T23:54:55.712Z,5.97
2018-11-20T23:57:23.628Z,5.86
2018-11-20T23:59:51.575Z,5.96
